createdAt,value
2023-05-22T00:01:28.140Z,13.38
2023-05-22T00:03:54.300Z,13.57
2023-05-22T00:06:21.412Z,12.57
2023-05-22T00:08:47.517Z,13.45
2023-05-22T00:11:13.753Z,12.65
2023-05-22T00:13:39.613Z,13.80
2023-05-22T00:16:06.188Z,13.65
2023-05-22T00:18:32.120Z,13.35
2023-05-22T00:20:58.662Z,13.27
2023-05-22T00:23:25.280Z,13.43
2023-05-22T00:25:51.304Z,12.02
2023-05-22T00:28:17.307Z,17.27
2023-05-22T00:30:43.230Z,12.93
2023-05-22T00:33:09.172Z,13.00
2023-05-22T00:35:35.114Z,12.88
2023-05-22T00:38:04.670Z,13.55
2023-05-22T00:40:30.710Z,12.80
2023-05-22T00:42:56.672Z,12.15
2023-05-22T00:45:23.839Z,14.15
2023-05-22T00:47:50.296Z,12.10
2023-05-22T00:50:18.270Z,13.85
2023-05-22T00:52:46.239Z,13.93
2023-05-22T00:55:15.165Z,12.02
2023-05-22T00:57:41.393Z,12.55
2023-05-22T01:00:12.488Z,13.98
2023-05-22T01:02:39.048Z,13.48
2023-05-22T01:05:07.050Z,13.07
2023-05-22T01:07:37.021Z,13.00
2023-05-22T01:10:05.384Z,13.02
2023-05-22T01:13:25.511Z,12.23
2023-05-22T01:16:12.326Z,13.82
2023-05-22T01:19:00.483Z,13.13
2023-05-22T01:22:12.706Z,12.82
2023-05-22T01:24:56.568Z,12.68
2023-05-22T01:27:42.150Z,15.55
2023-05-22T01:30:40.058Z,13.07
2023-05-22T01:33:07.814Z,12.68
2023-05-22T01:35:35.547Z,13.82
2023-05-22T01:38:02.663Z,18.50
2023-05-22T01:40:29.081Z,13.02
2023-05-22T01:42:55.096Z,14.30
2023-05-22T01:45:21.592Z,13.13
2023-05-22T01:47:47.936Z,13.57
2023-05-22T01:50:14.285Z,13.75
2023-05-22T01:53:05.332Z,13.10
2023-05-22T01:55:45.464Z,12.73
2023-05-22T01:58:19.804Z,14.10
2023-05-22T02:00:47.237Z,13.05
2023-05-22T02:03:18.504Z,13.82
2023-05-22T02:05:47.912Z,14.15
2023-05-22T02:08:14.937Z,14.05
2023-05-22T02:10:42.715Z,16.08
2023-05-22T02:13:08.760Z,12.88
2023-05-22T02:15:34.979Z,15.50
2023-05-22T02:18:01.250Z,15.00
2023-05-22T02:20:27.198Z,16.15
2023-05-22T02:22:53.139Z,15.07
2023-05-22T02:25:19.022Z,16.23
2023-05-22T02:27:47.226Z,16.73
2023-05-22T02:30:13.981Z,15.60
2023-05-22T02:32:40.985Z,16.48
2023-05-22T02:35:07.686Z,15.50
2023-05-22T02:37:33.977Z,15.68
2023-05-22T02:40:00.017Z,14.98
2023-05-22T02:42:26.023Z,17.52
2023-05-22T02:44:51.921Z,15.90
2023-05-22T02:47:17.856Z,16.52
2023-05-22T02:49:45.225Z,15.70
2023-05-22T02:52:11.091Z,15.52
2023-05-22T02:54:37.015Z,16.08
2023-05-22T02:57:03.425Z,16.98
2023-05-22T02:59:29.418Z,16.10
2023-05-22T03:01:55.464Z,18.83
2023-05-22T03:04:22.011Z,15.38
2023-05-22T03:06:48.194Z,17.13
2023-05-22T03:09:15.281Z,18.35
2023-05-22T03:11:41.657Z,18.20
2023-05-22T03:14:07.514Z,19.35
2023-05-22T03:16:33.777Z,17.45
2023-05-22T03:19:13.094Z,17.98
2023-05-22T03:21:40.103Z,19.15
2023-05-22T03:24:06.818Z,18.52
2023-05-22T03:26:33.148Z,17.05
2023-05-22T03:28:59.164Z,17.45
2023-05-22T03:31:26.502Z,18.10
2023-05-22T03:33:52.438Z,16.88
2023-05-22T03:36:19.574Z,17.98
2023-05-22T03:38:45.482Z,17.13
2023-05-22T03:41:11.317Z,19.15
2023-05-22T03:43:37.218Z,18.13
2023-05-22T03:46:03.176Z,17.45
2023-05-22T03:48:29.138Z,16.67
2023-05-22T03:50:54.988Z,15.55
2023-05-22T03:53:21.420Z,16.63
2023-05-22T03:55:47.412Z,17.30
2023-05-22T03:58:14.779Z,17.42
2023-05-22T04:00:41.813Z,17.40
2023-05-22T04:03:12.310Z,16.33
2023-05-22T04:05:39.032Z,16.38
2023-05-22T04:08:04.945Z,17.10
2023-05-22T04:10:31.235Z,17.27
2023-05-22T04:12:58.832Z,18.48
2023-05-22T04:15:24.814Z,16.73
2023-05-22T04:17:50.877Z,17.55
2023-05-22T04:20:17.369Z,18.05
2023-05-22T04:22:45.170Z,18.55
2023-05-22T04:25:11.095Z,17.85
2023-05-22T04:27:37.299Z,18.10
2023-05-22T04:30:03.472Z,17.83
2023-05-22T04:32:29.383Z,18.52
2023-05-22T04:34:57.645Z,18.20
2023-05-22T04:37:25.719Z,17.85
2023-05-22T04:39:52.869Z,16.70
2023-05-22T04:42:19.844Z,18.38
2023-05-22T04:44:45.736Z,17.80
2023-05-22T04:47:13.716Z,17.35
2023-05-22T04:49:42.967Z,17.20
2023-05-22T04:52:10.888Z,16.98
2023-05-22T04:54:38.105Z,17.27
2023-05-22T04:57:04.503Z,19.13
2023-05-22T04:59:39.304Z,21.17
2023-05-22T05:02:05.977Z,16.83
2023-05-22T05:04:32.413Z,17.20
2023-05-22T05:06:58.316Z,19.13
2023-05-22T05:09:24.676Z,18.05
2023-05-22T05:11:51.873Z,17.25
2023-05-22T05:14:17.844Z,17.40
2023-05-22T05:16:43.828Z,17.58
2023-05-22T05:19:09.898Z,18.52
2023-05-22T05:21:36.075Z,18.77
2023-05-22T05:24:02.040Z,18.38
2023-05-22T05:26:27.906Z,19.05
2023-05-22T05:28:55.747Z,17.92
2023-05-22T05:31:22.134Z,15.60
2023-05-22T05:33:49.317Z,16.20
2023-05-22T05:36:15.750Z,18.58
2023-05-22T05:38:41.647Z,16.83
2023-05-22T05:41:07.534Z,17.88
2023-05-22T05:43:33.474Z,16.23
2023-05-22T05:45:59.651Z,16.45
2023-05-22T05:48:25.539Z,15.63
2023-05-22T05:50:51.699Z,15.57
2023-05-22T05:53:17.582Z,16.80
2023-05-22T05:55:43.455Z,15.10
2023-05-22T05:58:09.336Z,13.98
2023-05-22T06:00:35.764Z,14.25
2023-05-22T06:03:01.763Z,15.35
2023-05-22T06:05:28.703Z,14.48
2023-05-22T06:07:57.502Z,14.55
2023-05-22T06:10:23.460Z,17.52
2023-05-22T06:12:50.237Z,16.23
2023-05-22T06:15:17.203Z,17.85
2023-05-22T06:17:43.150Z,19.17
2023-05-22T06:20:09.462Z,20.42
2023-05-22T06:22:35.422Z,17.98
2023-05-22T06:25:01.296Z,18.25
2023-05-22T06:27:27.193Z,15.25
2023-05-22T06:29:53.537Z,18.48
2023-05-22T06:32:19.807Z,13.52
2023-05-22T06:34:48.067Z,14.52
2023-05-22T06:37:14.063Z,15.00
2023-05-22T06:39:40.050Z,14.38
2023-05-22T06:42:06.223Z,13.60
2023-05-22T06:44:32.107Z,13.05
2023-05-22T06:46:57.991Z,14.27
2023-05-22T06:49:24.111Z,14.00
2023-05-22T06:51:50.419Z,13.15
2023-05-22T06:54:16.713Z,12.50
2023-05-22T06:56:42.938Z,11.95
2023-05-22T06:59:10.270Z,10.07
2023-05-22T07:01:36.586Z,10.13
2023-05-22T07:04:04.577Z,13.88
2023-05-22T07:06:32.913Z,14.55
2023-05-22T07:08:59.220Z,10.60
2023-05-22T07:11:25.447Z,17.63
2023-05-22T07:13:51.456Z,9.63
2023-05-22T07:16:17.391Z,9.95
2023-05-22T07:18:45.379Z,12.05
2023-05-22T07:21:12.160Z,10.23
2023-05-22T07:23:38.033Z,9.98
2023-05-22T07:26:04.363Z,9.32
2023-05-22T07:28:30.436Z,9.50
2023-05-22T07:30:56.670Z,10.73
2023-05-22T07:33:22.562Z,9.88
2023-05-22T07:35:48.562Z,9.93
2023-05-22T07:38:14.481Z,12.90
2023-05-22T07:40:40.651Z,10.02
2023-05-22T07:43:06.723Z,10.27
2023-05-22T07:45:32.630Z,10.05
2023-05-22T07:47:58.508Z,10.32
2023-05-22T07:50:26.400Z,10.07
2023-05-22T07:52:52.499Z,12.10
2023-05-22T07:55:18.505Z,10.43
2023-05-22T07:57:44.529Z,11.27
2023-05-22T08:00:14.155Z,10.02
2023-05-22T08:02:40.775Z,12.52
2023-05-22T08:05:08.144Z,12.20
2023-05-22T08:07:34.161Z,10.57
2023-05-22T08:10:03.456Z,12.10
2023-05-22T08:12:29.427Z,10.70
2023-05-22T08:14:55.329Z,11.25
2023-05-22T08:17:21.330Z,11.95
2023-05-22T08:19:47.328Z,11.10
2023-05-22T08:22:13.280Z,13.20
2023-05-22T08:24:39.249Z,11.38
2023-05-22T08:27:05.358Z,10.77
2023-05-22T08:29:31.331Z,10.38
2023-05-22T08:31:57.562Z,12.40
2023-05-22T08:34:27.634Z,10.90
2023-05-22T08:36:53.595Z,12.00
2023-05-22T08:39:19.538Z,12.23
2023-05-22T08:41:46.734Z,11.00
2023-05-22T08:44:13.049Z,11.45
2023-05-22T08:46:43.427Z,11.07
2023-05-22T08:49:10.188Z,12.02
2023-05-22T08:51:43.607Z,10.52
2023-05-22T08:54:09.558Z,11.82
2023-05-22T08:56:39.788Z,12.88
2023-05-22T08:59:09.951Z,11.32
2023-05-22T09:01:35.929Z,10.93
2023-05-22T09:04:02.870Z,15.18
2023-05-22T09:06:29.371Z,11.07
2023-05-22T09:08:56.996Z,11.40
2023-05-22T09:11:23.513Z,10.98
2023-05-22T09:13:51.067Z,13.52
2023-05-22T09:16:17.903Z,15.10
2023-05-22T09:18:44.342Z,14.07
2023-05-22T09:21:25.495Z,11.25
2023-05-22T09:23:59.245Z,15.00
2023-05-22T09:26:28.581Z,10.07
2023-05-22T09:28:54.491Z,11.73
2023-05-22T09:31:20.574Z,11.70
2023-05-22T09:33:47.790Z,10.20
2023-05-22T09:36:14.163Z,10.40
2023-05-22T09:38:40.675Z,11.55
2023-05-22T09:41:07.227Z,10.15
2023-05-22T09:43:33.281Z,9.95
2023-05-22T09:46:06.183Z,10.35
2023-05-22T09:48:36.708Z,10.77
2023-05-22T09:51:04.742Z,11.10
2023-05-22T09:53:35.212Z,11.07
2023-05-22T09:56:03.764Z,11.73
2023-05-22T09:58:30.789Z,9.85
2023-05-22T10:00:57.447Z,11.57
2023-05-22T10:03:26.428Z,9.68
2023-05-22T10:05:56.826Z,12.23
2023-05-22T10:08:35.916Z,9.93
2023-05-22T10:11:02.935Z,10.82
2023-05-22T10:13:29.802Z,9.70
2023-05-22T10:15:56.833Z,12.07
2023-05-22T10:18:23.972Z,15.38
2023-05-22T10:20:50.757Z,9.82
2023-05-22T10:23:16.943Z,13.82
2023-05-22T10:25:44.905Z,25.42
2023-05-22T10:28:17.174Z,9.77
2023-05-22T10:30:51.051Z,12.25
2023-05-22T10:33:21.725Z,10.25
2023-05-22T10:35:56.628Z,11.32
2023-05-22T10:38:42.777Z,12.50
2023-05-22T10:41:09.777Z,10.43
2023-05-22T10:43:43.758Z,10.80
2023-05-22T10:46:12.163Z,10.52
2023-05-22T10:48:39.912Z,10.48
2023-05-22T10:51:07.540Z,11.02
2023-05-22T10:53:34.423Z,20.33
2023-05-22T10:56:10.408Z,12.40
2023-05-22T10:58:36.821Z,11.68
2023-05-22T11:01:17.002Z,12.65
2023-05-22T11:03:56.767Z,11.75
2023-05-22T11:06:48.238Z,12.27
2023-05-22T11:09:17.400Z,14.18
2023-05-22T11:11:43.424Z,15.05
2023-05-22T11:14:11.342Z,10.80
2023-05-22T11:16:38.312Z,11.80
2023-05-22T11:19:22.003Z,16.05
2023-05-22T11:21:48.983Z,11.65
2023-05-22T11:24:19.940Z,11.05
2023-05-22T11:27:01.807Z,12.07
2023-05-22T11:29:28.660Z,12.32
2023-05-22T11:31:55.235Z,12.20
2023-05-22T11:34:21.633Z,12.25
2023-05-22T11:36:48.082Z,12.70
2023-05-22T11:39:14.522Z,14.52
2023-05-22T11:41:41.255Z,17.08
2023-05-22T11:44:08.066Z,16.88
2023-05-22T11:46:34.242Z,16.73
2023-05-22T11:49:01.439Z,17.25
2023-05-22T11:51:27.748Z,17.70
2023-05-22T11:53:53.780Z,19.42
2023-05-22T11:56:22.969Z,18.73
2023-05-22T11:58:49.578Z,19.42
2023-05-22T12:01:15.783Z,24.27
2023-05-22T12:03:41.976Z,24.77
2023-05-22T12:06:08.781Z,25.02
2023-05-22T12:08:34.928Z,25.67
2023-05-22T12:11:05.268Z,24.48
2023-05-22T12:13:31.351Z,26.98
2023-05-22T12:16:01.772Z,25.60
2023-05-22T12:18:36.073Z,23.77
2023-05-22T12:21:05.319Z,27.80
2023-05-22T12:23:31.280Z,29.50
2023-05-22T12:25:59.162Z,29.58
2023-05-22T12:28:25.695Z,27.92
2023-05-22T12:30:53.955Z,31.33
2023-05-22T12:33:20.163Z,31.67
2023-05-22T12:35:50.593Z,32.15
2023-05-22T12:38:16.460Z,31.45
2023-05-22T12:40:42.442Z,29.42
2023-05-22T12:43:08.329Z,29.08
2023-05-22T12:45:34.259Z,28.73
2023-05-22T12:48:00.280Z,28.92
2023-05-22T12:50:26.669Z,30.10
2023-05-22T12:52:52.651Z,27.95
2023-05-22T12:55:18.526Z,28.52
2023-05-22T12:57:44.716Z,27.95
2023-05-22T13:00:11.341Z,29.27
2023-05-22T13:02:37.265Z,29.70
2023-05-22T13:05:03.531Z,30.08
2023-05-22T13:07:29.539Z,31.35
2023-05-22T13:09:55.436Z,30.27
2023-05-22T13:12:21.358Z,27.42
2023-05-22T13:14:47.330Z,28.05
2023-05-22T13:17:13.256Z,29.50
2023-05-22T13:19:39.177Z,30.45
2023-05-22T13:22:06.890Z,27.27
2023-05-22T13:24:32.792Z,27.38
2023-05-22T13:26:58.606Z,27.52
2023-05-22T13:29:24.454Z,25.40
2023-05-22T13:31:50.640Z,25.98
2023-05-22T13:34:16.710Z,27.05
2023-05-22T13:36:42.928Z,27.13
2023-05-22T13:39:08.872Z,26.95
2023-05-22T13:41:34.893Z,29.00
2023-05-22T13:44:01.211Z,27.05
2023-05-22T13:46:27.151Z,26.85
2023-05-22T13:48:53.214Z,25.42
2023-05-22T13:51:19.151Z,23.35
2023-05-22T13:53:45.313Z,23.23
2023-05-22T13:56:11.756Z,23.40
2023-05-22T13:58:37.678Z,23.50
2023-05-22T14:01:03.647Z,22.73
2023-05-22T14:03:29.705Z,22.85
2023-05-22T14:05:55.690Z,23.77
2023-05-22T14:08:21.691Z,10.73
2023-05-22T14:10:47.882Z,5.97
2023-05-22T14:13:14.553Z,5.65
2023-05-22T14:15:41.833Z,7.53
2023-05-22T14:18:07.978Z,6.95
2023-05-22T14:20:33.929Z,4.63
2023-05-22T14:22:59.856Z,5.60
2023-05-22T14:25:25.912Z,5.90
2023-05-22T14:27:51.916Z,3.78
2023-05-22T14:30:18.305Z,11.18
2023-05-22T14:32:45.278Z,5.10
2023-05-22T14:35:12.000Z,6.55
2023-05-22T14:37:38.027Z,5.28
2023-05-22T14:40:04.598Z,6.18
2023-05-22T14:42:30.504Z,5.75
2023-05-22T14:44:57.245Z,5.65
2023-05-22T14:47:23.111Z,4.40
2023-05-22T14:49:49.015Z,4.03
2023-05-22T14:52:14.989Z,5.10
2023-05-22T14:54:42.020Z,5.00
2023-05-22T14:57:07.969Z,5.00
2023-05-22T14:59:33.926Z,8.88
2023-05-22T15:01:59.960Z,5.82
2023-05-22T15:04:25.974Z,5.40
2023-05-22T15:06:51.901Z,4.57
2023-05-22T15:09:17.823Z,5.28
2023-05-22T15:11:46.164Z,4.55
2023-05-22T15:14:12.211Z,4.45
2023-05-22T15:16:39.807Z,4.30
2023-05-22T15:19:06.746Z,4.90
2023-05-22T15:21:33.279Z,4.22
2023-05-22T15:23:59.167Z,3.25
2023-05-22T15:26:25.183Z,5.55
2023-05-22T15:28:51.073Z,6.38
2023-05-22T15:31:17.255Z,5.43
2023-05-22T15:33:43.529Z,5.68
2023-05-22T15:36:09.519Z,4.07
2023-05-22T15:38:35.460Z,3.70
2023-05-22T15:41:01.296Z,4.53
2023-05-22T15:43:27.344Z,4.47
2023-05-22T15:45:53.412Z,4.30
2023-05-22T15:48:20.154Z,5.13
2023-05-22T15:50:46.161Z,4.68
2023-05-22T15:53:12.091Z,5.38
2023-05-22T15:55:38.472Z,4.32
2023-05-22T15:58:06.975Z,5.10
2023-05-22T16:00:37.971Z,4.35
2023-05-22T16:03:07.653Z,4.70
2023-05-22T16:05:35.860Z,5.97
2023-05-22T16:08:01.848Z,4.78
2023-05-22T16:10:27.790Z,4.28
2023-05-22T16:12:54.053Z,5.05
2023-05-22T16:15:20.609Z,5.15
2023-05-22T16:17:46.638Z,6.15
2023-05-22T16:20:12.601Z,5.45
2023-05-22T16:22:48.204Z,5.65
2023-05-22T16:25:16.188Z,6.88
2023-05-22T16:27:42.704Z,6.55
2023-05-22T16:30:10.354Z,7.40
2023-05-22T16:32:37.079Z,8.68
2023-05-22T16:35:03.323Z,6.88
2023-05-22T16:37:29.296Z,6.13
2023-05-22T16:39:55.249Z,5.75
2023-05-22T16:42:21.193Z,7.45
2023-05-22T16:44:47.117Z,6.75
2023-05-22T16:47:13.040Z,9.65
2023-05-22T16:49:40.317Z,9.80
2023-05-22T16:52:06.221Z,8.45
2023-05-22T16:54:32.261Z,8.13
2023-05-22T16:56:58.248Z,11.73
2023-05-22T16:59:24.169Z,12.27
2023-05-22T17:01:50.123Z,8.80
2023-05-22T17:04:18.446Z,7.80
2023-05-22T17:06:44.301Z,7.00
2023-05-22T17:09:10.187Z,9.38
2023-05-22T17:11:36.764Z,5.88
2023-05-22T17:14:03.419Z,5.13
2023-05-22T17:16:30.176Z,5.25
2023-05-22T17:18:56.047Z,6.18
2023-05-22T17:21:22.077Z,6.30
2023-05-22T17:23:48.150Z,4.63
2023-05-22T17:26:14.056Z,4.63
2023-05-22T17:28:40.218Z,6.88
2023-05-22T17:31:07.016Z,10.40
2023-05-22T17:33:33.224Z,8.18
2023-05-22T17:35:59.762Z,10.02
2023-05-22T17:38:28.497Z,26.20
2023-05-22T17:40:54.727Z,28.70
2023-05-22T17:43:20.775Z,50.80
2023-05-22T17:45:50.295Z,55.17
2023-05-22T17:48:22.625Z,55.53
2023-05-22T17:50:49.217Z,49.83
2023-05-22T17:53:19.224Z,49.20
2023-05-22T17:55:46.033Z,48.22
2023-05-22T17:58:13.180Z,46.38
2023-05-22T18:00:39.500Z,31.70
2023-05-22T18:03:06.336Z,20.15
2023-05-22T18:05:33.353Z,16.48
2023-05-22T18:07:59.871Z,21.42
2023-05-22T18:10:25.833Z,11.30
2023-05-22T18:12:52.087Z,13.60
2023-05-22T18:15:18.343Z,8.93
2023-05-22T18:17:44.569Z,10.07
2023-05-22T18:20:11.530Z,10.48
2023-05-22T18:22:39.075Z,9.82
2023-05-22T18:25:06.134Z,10.10
2023-05-22T18:27:32.965Z,10.55
2023-05-22T18:29:58.864Z,9.63
2023-05-22T18:32:24.865Z,11.05
2023-05-22T18:34:51.426Z,11.15
2023-05-22T18:37:21.273Z,12.02
2023-05-22T18:39:47.584Z,14.15
2023-05-22T18:42:13.913Z,12.65
2023-05-22T18:44:40.155Z,14.43
2023-05-22T18:47:06.485Z,13.27
2023-05-22T18:49:32.896Z,13.20
2023-05-22T18:51:59.234Z,15.50
2023-05-22T18:54:25.659Z,13.25
2023-05-22T18:56:51.597Z,15.25
2023-05-22T18:59:17.801Z,12.38
2023-05-22T19:01:44.839Z,13.95
2023-05-22T19:04:10.870Z,13.32
2023-05-22T19:06:42.500Z,13.30
2023-05-22T19:09:11.457Z,13.82
2023-05-22T19:11:37.980Z,15.68
2023-05-22T19:14:03.983Z,14.30
2023-05-22T19:16:30.343Z,17.42
2023-05-22T19:18:56.257Z,18.23
2023-05-22T19:21:22.573Z,15.57
2023-05-22T19:23:48.557Z,15.00
2023-05-22T19:26:14.512Z,16.30
2023-05-22T19:28:40.481Z,15.07
2023-05-22T19:31:06.729Z,16.45
2023-05-22T19:33:33.108Z,21.00
2023-05-22T19:36:02.707Z,17.98
2023-05-22T19:38:30.379Z,14.25
2023-05-22T19:40:56.292Z,15.93
2023-05-22T19:43:22.514Z,15.30
2023-05-22T19:45:48.576Z,19.27
2023-05-22T19:48:14.616Z,15.82
2023-05-22T19:50:40.864Z,16.27
2023-05-22T19:53:07.350Z,15.70
2023-05-22T19:55:33.256Z,16.77
2023-05-22T19:57:59.298Z,18.08
2023-05-22T20:00:28.573Z,16.05
2023-05-22T20:02:55.279Z,18.40
2023-05-22T20:05:22.049Z,20.83
2023-05-22T20:07:48.234Z,16.70
2023-05-22T20:10:14.186Z,17.77
2023-05-22T20:12:40.200Z,20.42
2023-05-22T20:15:06.489Z,21.60
2023-05-22T20:17:33.636Z,21.13
2023-05-22T20:20:00.346Z,20.48
2023-05-22T20:22:27.073Z,19.27
2023-05-22T20:24:53.508Z,20.85
2023-05-22T20:27:19.723Z,19.45
2023-05-22T20:29:45.764Z,22.20
2023-05-22T20:32:11.736Z,21.60
2023-05-22T20:34:37.852Z,22.42
2023-05-22T20:37:05.894Z,24.30
2023-05-22T20:39:31.882Z,23.00
2023-05-22T20:42:01.831Z,23.58
2023-05-22T20:44:28.800Z,24.33
2023-05-22T20:46:55.000Z,23.92
2023-05-22T20:49:21.045Z,25.77
2023-05-22T20:51:49.379Z,25.40
2023-05-22T20:54:18.381Z,25.27
2023-05-22T20:56:44.398Z,24.08
2023-05-22T20:59:10.810Z,23.88
2023-05-22T21:01:37.227Z,24.23
2023-05-22T21:04:03.234Z,23.05
2023-05-22T21:06:29.197Z,23.75
2023-05-22T21:08:59.077Z,24.20
2023-05-22T21:11:26.073Z,21.80
2023-05-22T21:13:52.422Z,22.65
2023-05-22T21:16:18.397Z,22.55
2023-05-22T21:18:44.370Z,25.10
2023-05-22T21:21:10.510Z,23.45
2023-05-22T21:23:36.392Z,23.45
2023-05-22T21:26:02.624Z,24.25
2023-05-22T21:28:28.691Z,24.75
2023-05-22T21:30:54.733Z,24.15
2023-05-22T21:33:20.693Z,25.15
2023-05-22T21:35:46.565Z,25.70
2023-05-22T21:38:12.481Z,23.88
2023-05-22T21:40:40.785Z,25.17
2023-05-22T21:43:06.806Z,22.25
2023-05-22T21:45:32.910Z,38.00
2023-05-22T21:47:58.809Z,20.58
2023-05-22T21:50:24.864Z,21.67
2023-05-22T21:52:50.780Z,22.17
2023-05-22T21:55:16.644Z,22.73
2023-05-22T21:57:42.562Z,21.83
2023-05-22T22:00:08.894Z,23.50
2023-05-22T22:02:34.891Z,24.42
2023-05-22T22:05:00.859Z,20.27
2023-05-22T22:07:26.721Z,21.98
2023-05-22T22:09:52.595Z,19.02
2023-05-22T22:12:18.456Z,18.27
2023-05-22T22:14:44.400Z,20.00
2023-05-22T22:17:10.320Z,20.42
2023-05-22T22:19:36.314Z,18.27
2023-05-22T22:22:02.742Z,19.20
2023-05-22T22:24:29.205Z,17.38
2023-05-22T22:26:55.053Z,17.13
2023-05-22T22:29:20.930Z,16.42
2023-05-22T22:31:46.955Z,16.55
2023-05-22T22:34:12.999Z,15.25
2023-05-22T22:36:40.917Z,17.58
2023-05-22T22:39:06.920Z,14.77
2023-05-22T22:41:32.764Z,14.65
2023-05-22T22:43:58.771Z,12.73
2023-05-22T22:46:24.821Z,14.05
2023-05-22T22:48:54.813Z,12.55
2023-05-22T22:51:21.013Z,14.27
2023-05-22T22:53:47.043Z,14.00
2023-05-22T22:56:12.957Z,12.73
2023-05-22T22:58:38.909Z,11.35
2023-05-22T23:01:04.913Z,13.13
2023-05-22T23:03:30.875Z,11.55
2023-05-22T23:05:57.092Z,10.52
2023-05-22T23:08:23.104Z,11.05
2023-05-22T23:10:49.382Z,10.80
2023-05-22T23:13:15.451Z,14.32
2023-05-22T23:16:43.551Z,10.57
2023-05-22T23:19:10.162Z,10.63
2023-05-22T23:21:36.808Z,10.45
2023-05-22T23:24:03.917Z,11.18
2023-05-22T23:26:30.891Z,10.13
2023-05-22T23:29:00.413Z,10.95
2023-05-22T23:31:29.569Z,10.00
2023-05-22T23:33:56.705Z,11.25
2023-05-22T23:36:22.961Z,10.88
2023-05-22T23:38:48.887Z,10.52
2023-05-22T23:41:18.015Z,9.98
2023-05-22T23:43:45.032Z,12.73
2023-05-22T23:46:14.159Z,12.77
2023-05-22T23:48:41.472Z,10.88
2023-05-22T23:51:13.466Z,11.90
2023-05-22T23:53:43.207Z,12.85
2023-05-22T23:56:09.996Z,11.00
2023-05-22T23:58:39.028Z,13.25
